createdAt,value
2023-02-22T00:04:08.699Z,25.6
2023-02-22T00:10:01.052Z,23.5
2023-02-22T00:15:53.848Z,23.4
2023-02-22T00:21:46.360Z,24.4
2023-02-22T00:27:38.424Z,26.3
2023-02-22T00:33:16.276Z,23.8
2023-02-22T00:38:53.614Z,23.6
2023-02-22T00:44:45.831Z,23.4
2023-02-22T00:50:08.088Z,24.3
2023-02-22T00:56:01.141Z,26
2023-02-22T01:01:54.118Z,24.1
2023-02-22T01:07:32.219Z,23.6
2023-02-22T01:13:26.213Z,23.4
2023-02-22T01:19:03.171Z,24.3
2023-02-22T01:24:56.973Z,26.1
2023-02-22T01:30:34.838Z,24
2023-02-22T01:36:11.723Z,23.7
2023-02-22T01:42:05.269Z,24.1
2023-02-22T01:47:42.722Z,23.7
2023-02-22T01:53:34.893Z,23.3
2023-02-22T01:59:26.659Z,23.1
2023-02-22T02:05:19.464Z,25.1
2023-02-22T02:11:12.490Z,26.7
2023-02-22T02:16:49.032Z,23.7
2023-02-22T02:22:11.681Z,24.3
2023-02-22T02:27:48.972Z,23.8
2023-02-22T02:33:41.686Z,23.6
2023-02-22T02:39:35.450Z,23
2023-02-22T02:44:57.345Z,23.9
2023-02-22T02:50:50.498Z,25.8
2023-02-22T02:56:43.695Z,25
2023-02-22T03:02:20.084Z,26.6
2023-02-22T03:08:13.915Z,23.8
2023-02-22T03:14:06.598Z,24.1
2023-02-22T03:19:59.036Z,23.9
2023-02-22T03:25:51.567Z,23.6
2023-02-22T03:31:44.036Z,23.1
2023-02-22T03:37:20.847Z,23.6
2023-02-22T03:42:58.978Z,25.4
2023-02-22T03:48:37.035Z,26.8
2023-02-22T03:54:29.687Z,23.7
2023-02-22T03:59:53.091Z,24.3
2023-02-22T04:05:47.153Z,23.8
2023-02-22T04:11:07.857Z,23.6
2023-02-22T04:17:00.592Z,23
2023-02-22T04:22:53.865Z,23.8
2023-02-22T04:28:45.235Z,25.6
2023-02-22T04:34:22.793Z,26.9
2023-02-22T04:40:02.013Z,23.8
2023-02-22T04:45:38.500Z,24.3
2023-02-22T04:51:33.726Z,23.8
2023-02-22T04:57:27.276Z,23.5
2023-02-22T05:03:19.861Z,22.9
2023-02-22T05:08:56.028Z,23.9
2023-02-22T05:14:18.586Z,25.5
2023-02-22T05:20:10.984Z,26.8
2023-02-22T05:26:03.422Z,23.7
2023-02-22T05:31:57.786Z,24.3
2023-02-22T05:37:51.306Z,23.8
2023-02-22T05:43:43.081Z,23.5
2023-02-22T05:49:21.964Z,22.9
2023-02-22T05:55:15.469Z,24
2023-02-22T06:01:08.325Z,25.9
2023-02-22T06:06:45.846Z,24.7
2023-02-22T06:12:37.197Z,26.3
2023-02-22T06:18:29.431Z,23.9
2023-02-22T06:24:07.633Z,23.6
2023-02-22T06:29:44.620Z,24
2023-02-22T06:35:21.864Z,23.5
2023-02-22T06:40:59.592Z,23.2
2023-02-22T06:46:37.384Z,23.1
2023-02-22T06:52:16.290Z,24.9
2023-02-22T06:57:54.235Z,26.6
2023-02-22T07:03:31.311Z,23.5
2023-02-22T07:09:09.746Z,23.4
2023-02-22T07:14:49.785Z,24.3
2023-02-22T07:20:27.704Z,25.9
2023-02-22T07:25:50.416Z,24.1
2023-02-22T07:31:46.208Z,23.4
2023-02-22T07:37:38.076Z,23.3
2023-02-22T07:43:31.812Z,25.1
2023-02-22T07:49:25.266Z,26.4
2023-02-22T07:55:17.618Z,23.5
2023-02-22T08:01:08.876Z,23.4
2023-02-22T08:07:02.444Z,24.6
2023-02-22T08:12:39.347Z,26.7
2023-02-22T08:18:32.820Z,23.6
2023-02-22T08:24:26.578Z,23.4
2023-02-22T08:30:19.769Z,24.3
2023-02-22T08:36:17.664Z,26.4
2023-02-22T08:42:10.739Z,23.6
2023-02-22T08:48:03.981Z,23.4
2023-02-22T08:53:57.293Z,23.9
2023-02-22T08:59:50.811Z,26.2
2023-02-22T09:05:56.612Z,23.6
2023-02-22T09:11:50.985Z,23.4
2023-02-22T09:17:46.250Z,24.3
2023-02-22T09:23:48.096Z,26.6
2023-02-22T09:29:47.162Z,23.6
2023-02-22T09:35:28.729Z,23.4
2023-02-22T09:41:22.451Z,23.1
2023-02-22T09:47:14.892Z,22.8
2023-02-22T09:53:09.358Z,22.4
2023-02-22T09:58:46.895Z,21.9
2023-02-22T10:04:39.734Z,21.6
2023-02-22T10:15:07.891Z,20.8
2023-02-22T10:21:01.766Z,20.4
2023-02-22T10:26:39.933Z,20.1
2023-02-22T10:32:39.121Z,19.7
2023-02-22T10:38:33.321Z,19.3
2023-02-22T10:43:56.783Z,19.1
2023-02-22T10:49:35.749Z,18.8
2023-02-22T10:55:17.613Z,18.4
2023-02-22T11:00:54.970Z,18.2
2023-02-22T11:06:32.679Z,17.9
2023-02-22T11:12:10.833Z,17.7
2023-02-22T11:17:34.303Z,17.5
2023-02-22T11:23:13.401Z,17.3
2023-02-22T11:28:59.309Z,17.1
2023-02-22T11:35:08.250Z,16.9
2023-02-22T11:40:30.275Z,16.8
2023-02-22T11:46:32.237Z,16.6
2023-02-22T11:52:11.242Z,16.4
2023-02-22T11:58:01.159Z,16.3
2023-02-22T12:03:47.364Z,16.1
2023-02-22T12:09:47.110Z,16
2023-02-22T12:15:40.306Z,15.9
2023-02-22T12:21:42.844Z,15.8
2023-02-22T12:27:30.257Z,15.6
2023-02-22T12:33:29.661Z,15.6
2023-02-22T12:38:51.703Z,15.4
2023-02-22T12:44:56.940Z,15.4
2023-02-22T12:50:50.223Z,15.3
2023-02-22T12:56:54.148Z,15.2
2023-02-22T13:02:16.874Z,15.1
2023-02-22T13:08:22.750Z,15
2023-02-22T13:14:15.969Z,14.9
2023-02-22T13:19:53.877Z,14.9
2023-02-22T13:25:32.370Z,14.8
2023-02-22T13:31:41.041Z,14.8
2023-02-22T13:37:19.449Z,14.8
2023-02-22T13:43:12.647Z,14.7
2023-02-22T13:49:05.712Z,14.6
2023-02-22T13:55:03.787Z,14.6
2023-02-22T14:00:59.595Z,14.6
2023-02-22T14:06:53.841Z,14.5
2023-02-22T14:12:34.523Z,14.5
2023-02-22T14:18:35.579Z,14.5
2023-02-22T14:24:28.754Z,14.4
2023-02-22T14:30:32.128Z,14.4
2023-02-22T14:36:57.287Z,14.4
2023-02-22T14:42:52.681Z,14.4
2023-02-22T14:48:49.187Z,14.4
2023-02-22T14:54:55.496Z,14.3
2023-02-22T15:00:33.206Z,14.3
2023-02-22T15:06:53.010Z,14.3
2023-02-22T15:12:48.463Z,14.3
2023-02-22T15:18:52.230Z,14.3
2023-02-22T15:24:47.778Z,14.3
2023-02-22T15:30:37.981Z,14.3
2023-02-22T15:36:52.581Z,14.3
2023-02-22T15:42:46.685Z,14.3
2023-02-22T15:48:49.338Z,14.2
2023-02-22T15:54:49.640Z,14.2
2023-02-22T16:00:30.420Z,14.2
2023-02-22T16:06:34.243Z,14.2
2023-02-22T16:12:28.009Z,14.2
2023-02-22T16:18:51.970Z,14.2
2023-02-22T16:25:00.566Z,14.1
2023-02-22T16:30:47.161Z,14.1
2023-02-22T16:36:29.920Z,14.1
2023-02-22T16:42:23.460Z,14.1
2023-02-22T16:48:01.403Z,14.1
2023-02-22T16:53:39.675Z,14.1
2023-02-22T16:59:17.801Z,14.1
2023-02-22T17:05:10.491Z,14.1
2023-02-22T17:11:03.096Z,14.1
2023-02-22T17:16:57.493Z,14.1
2023-02-22T17:22:34.495Z,14.1
2023-02-22T17:28:12.753Z,14.1
2023-02-22T17:33:50.304Z,14.1
2023-02-22T17:39:45.406Z,14.1
2023-02-22T17:45:38.448Z,14.1
2023-02-22T17:51:31.472Z,14.1
2023-02-22T17:57:49.019Z,14.1
2023-02-22T18:03:27.647Z,14.1
2023-02-22T18:08:49.476Z,14
2023-02-22T18:14:27.176Z,14
2023-02-22T18:20:05.173Z,14
2023-02-22T18:26:09.952Z,14
2023-02-22T18:32:04.665Z,14
2023-02-22T18:37:58.849Z,14
2023-02-22T18:43:52.294Z,14
2023-02-22T18:49:46.476Z,14
2023-02-22T18:55:43.694Z,14
2023-02-22T19:01:37.839Z,14
2023-02-22T19:07:32.250Z,14
2023-02-22T19:13:26.325Z,13.9
2023-02-22T19:19:24.810Z,14
2023-02-22T19:25:19.552Z,14
2023-02-22T19:31:13.375Z,13.9
2023-02-22T19:37:09.022Z,13.9
2023-02-22T19:43:06.597Z,13.9
2023-02-22T19:49:00.694Z,13.9
2023-02-22T19:54:54.647Z,13.9
2023-02-22T20:00:47.966Z,13.9
2023-02-22T20:06:42.847Z,13.9
2023-02-22T20:12:36.253Z,13.9
2023-02-22T20:18:13.351Z,13.9
2023-02-22T20:24:07.854Z,13.9
2023-02-22T20:29:48.526Z,13.9
2023-02-22T20:35:44.253Z,13.9
2023-02-22T20:41:22.511Z,13.9
2023-02-22T20:46:59.400Z,13.9
2023-02-22T20:52:52.949Z,13.9
2023-02-22T20:58:49.032Z,13.9
2023-02-22T21:04:42.484Z,17.8
2023-02-22T21:10:37.712Z,21.9
2023-02-22T21:16:34.049Z,23.9
2023-02-22T21:22:27.754Z,25.3
2023-02-22T21:28:05.060Z,26.3
2023-02-22T21:34:14.909Z,23.7
2023-02-22T21:40:06.982Z,25.5
2023-02-22T21:46:00.613Z,26.7
2023-02-22T21:51:54.250Z,22.8
2023-02-22T21:57:47.041Z,24.8
2023-02-22T22:03:40.268Z,26.3
2023-02-22T22:09:33.613Z,27.4
2023-02-22T22:15:32.384Z,24.1
2023-02-22T22:21:24.664Z,26.3
2023-02-22T22:27:18.907Z,27.4
2023-02-22T22:33:11.606Z,23.5
2023-02-22T22:38:48.321Z,25.1
2023-02-22T22:44:26.715Z,26.7
2023-02-22T22:50:04.369Z,24.9
2023-02-22T22:55:58.257Z,23.7
2023-02-22T23:01:52.392Z,25.3
2023-02-22T23:07:46.345Z,26.9
2023-02-22T23:13:39.250Z,24.1
2023-02-22T23:19:33.640Z,23.8
2023-02-22T23:25:25.232Z,25.9
2023-02-22T23:31:02.330Z,27.4
2023-02-22T23:36:57.394Z,23.9
2023-02-22T23:42:52.409Z,24.6
2023-02-22T23:48:30.122Z,24.1
2023-02-22T23:54:08.802Z,23.9
